METAR Data

Data at: 2259 UTC 01 Mar 2021

METAR for:LIPZ (Venezia/Polo Arpt, VE, IY)
Text:LIPZ 012250Z 04005KT CAVOK 08/02 Q1032 NOSIG
Temperature: 8.0°C ( 46°F)
Dewpoint: 2.0°C ( 36°F) [RH = 66%]
Pressure (altimeter):30.47 inches Hg (1032.0 mb)
Winds:from the NE (40 degrees) at 6 MPH (5 knots; 2.6 m/s)
Visibility:6 or more sm (10+ km)
Ceiling:ceiling and visibility are OK
Clouds:unknown

TAF for:LIPZ (Venezia/Polo Arpt, VE, IY) issued at 1700 UTC 01 Mar 2021
Text:TAF LIPZ 011700Z 0118/0224 VRB05KT CAVOK
Forecast period:1800 UTC 01 March 2021 to 0000 UTC 03 March 2021
Forecast type:FROM: standard forecast or significant change
Winds:variable direction winds at 6 MPH (5 knots; 2.6 m/s)
Visibility:6 or more sm (10+ km)
Clouds:missing
Weather:NSW (no significant weather)